createdAt,value
2022-09-10T00:03:35.377Z,20.10
2022-09-10T00:08:39.169Z,20.08
2022-09-10T00:13:42.365Z,20.03
2022-09-10T00:18:44.873Z,20.00
2022-09-10T00:23:47.982Z,19.91
2022-09-10T00:28:51.724Z,19.87
2022-09-10T00:33:54.899Z,19.90
2022-09-10T00:38:59.937Z,19.94
2022-09-10T00:44:04.157Z,19.97
2022-09-10T00:49:22.740Z,19.99
2022-09-10T00:54:27.446Z,19.95
2022-09-10T00:59:31.084Z,19.96
2022-09-10T01:04:33.482Z,19.93
2022-09-10T01:09:36.446Z,19.96
2022-09-10T01:15:07.159Z,20.01
2022-09-10T01:20:41.366Z,19.92
2022-09-10T01:26:05.404Z,19.89
2022-09-10T01:31:31.403Z,19.91
2022-09-10T01:36:39.173Z,19.87
2022-09-10T01:41:41.312Z,19.79
2022-09-10T01:47:17.812Z,19.85
2022-09-10T01:52:32.202Z,19.81
2022-09-10T01:57:50.377Z,19.63
2022-09-10T02:03:06.295Z,19.51
2022-09-10T02:08:14.742Z,19.41
2022-09-10T02:13:17.324Z,19.45
2022-09-10T02:18:33.559Z,19.55
2022-09-10T02:23:41.284Z,19.63
2022-09-10T02:28:43.744Z,19.66
2022-09-10T02:33:46.728Z,19.67
2022-09-10T02:38:48.613Z,19.72
2022-09-10T02:43:50.444Z,19.71
2022-09-10T02:48:55.277Z,19.67
2022-09-10T02:53:58.311Z,19.48
2022-09-10T02:59:00.563Z,19.29
2022-09-10T03:04:03.712Z,19.28
2022-09-10T03:09:06.788Z,19.33
2022-09-10T03:14:12.279Z,19.38
2022-09-10T03:19:15.230Z,19.32
2022-09-10T03:24:17.154Z,19.22
2022-09-10T03:29:23.021Z,19.24
2022-09-10T03:34:25.023Z,19.19
2022-09-10T03:39:27.306Z,19.11
2022-09-10T03:44:29.196Z,19.13
2022-09-10T03:49:31.030Z,19.19
2022-09-10T03:54:33.082Z,19.18
2022-09-10T03:59:35.516Z,18.99
2022-09-10T04:04:37.703Z,19.01
2022-09-10T04:09:39.732Z,19.03
2022-09-10T04:14:43.620Z,18.98
2022-09-10T04:19:48.813Z,18.91
2022-09-10T04:24:52.196Z,18.93
2022-09-10T04:29:54.217Z,18.93
2022-09-10T04:34:56.109Z,18.94
2022-09-10T04:39:59.174Z,18.97
2022-09-10T04:45:01.103Z,18.91
2022-09-10T04:50:03.890Z,18.82
2022-09-10T04:55:06.381Z,18.74
2022-09-10T05:00:09.017Z,18.70
2022-09-10T05:05:13.946Z,18.68
2022-09-10T05:10:15.993Z,18.70
2022-09-10T05:15:18.903Z,18.68
2022-09-10T05:20:22.803Z,18.67
2022-09-10T05:25:28.085Z,18.73
2022-09-10T05:30:33.106Z,18.79
2022-09-10T05:35:35.793Z,18.79
2022-09-10T05:40:38.300Z,18.71
2022-09-10T05:45:40.310Z,18.63
2022-09-10T05:50:45.610Z,18.67
2022-09-10T05:55:48.722Z,18.72
2022-09-10T06:00:52.153Z,18.82
2022-09-10T06:05:55.819Z,18.94
2022-09-10T06:11:06.038Z,19.08
2022-09-10T06:16:14.494Z,19.05
2022-09-10T06:21:19.747Z,19.14
2022-09-10T06:26:26.173Z,19.16
2022-09-10T06:31:31.539Z,19.24
2022-09-10T06:36:35.252Z,19.46
2022-09-10T06:41:37.604Z,19.52
2022-09-10T06:47:25.806Z,19.85
2022-09-10T06:52:11.631Z,20.19
2022-09-10T06:57:14.067Z,20.50
2022-09-10T07:02:16.901Z,20.65
2022-09-10T07:07:20.229Z,20.55
2022-09-10T07:12:22.448Z,20.51
2022-09-10T07:17:26.777Z,20.69
2022-09-10T07:22:32.680Z,20.56
2022-09-10T07:27:35.113Z,20.46
2022-09-10T07:32:37.304Z,20.47
2022-09-10T07:37:47.186Z,20.61
2022-09-10T07:42:49.562Z,20.76
2022-09-10T07:47:52.332Z,20.98
2022-09-10T07:52:54.797Z,21.07
2022-09-10T07:58:00.234Z,21.03
2022-09-10T08:03:04.918Z,21.13
2022-09-10T08:08:06.761Z,21.25
2022-09-10T08:13:10.166Z,21.21
2022-09-10T08:18:13.704Z,21.24
2022-09-10T08:23:16.661Z,21.39
2022-09-10T08:28:25.677Z,21.48
2022-09-10T08:33:30.095Z,21.58
2022-09-10T08:38:34.624Z,21.57
2022-09-10T08:44:03.472Z,21.74
2022-09-10T08:54:25.455Z,22.37
2022-09-10T08:59:35.101Z,22.69
2022-09-10T09:04:51.114Z,23.11
2022-09-10T09:09:53.876Z,23.26
2022-09-10T09:15:11.657Z,23.08
2022-09-10T09:20:26.150Z,23.43
2022-09-10T09:25:44.648Z,23.92
2022-09-10T09:30:49.820Z,24.08
2022-09-10T09:35:59.164Z,24.14
2022-09-10T09:41:15.773Z,23.97
2022-09-10T09:46:20.194Z,23.74
2022-09-10T09:51:25.419Z,23.59
2022-09-10T09:56:43.044Z,23.60
2022-09-10T10:01:45.098Z,23.67
2022-09-10T10:06:54.427Z,23.90
2022-09-10T10:12:04.484Z,24.05
2022-09-10T10:17:30.351Z,23.95
2022-09-10T10:22:32.639Z,23.75
2022-09-10T10:27:37.773Z,23.57
2022-09-10T10:32:44.863Z,23.49
2022-09-10T10:38:08.001Z,23.31
2022-09-10T10:43:22.991Z,23.02
2022-09-10T10:48:57.860Z,23.15
2022-09-10T10:54:22.269Z,23.22
2022-09-10T10:59:46.212Z,23.72
2022-09-10T11:04:55.367Z,24.29
2022-09-10T11:10:19.883Z,24.78
2022-09-10T11:15:37.934Z,24.77
2022-09-10T11:21:27.333Z,24.62
2022-09-10T11:26:44.487Z,24.29
2022-09-10T11:31:53.738Z,24.05
2022-09-10T11:37:19.265Z,24.15
2022-09-10T11:42:41.359Z,24.15
2022-09-10T11:47:49.080Z,24.17
2022-09-10T11:52:53.419Z,24.36
2022-09-10T11:58:17.734Z,24.21
2022-09-10T12:03:58.296Z,24.22
2022-09-10T12:09:18.886Z,24.17
2022-09-10T12:14:21.885Z,23.75
2022-09-10T12:19:37.517Z,23.69
2022-09-10T12:24:40.019Z,23.75
2022-09-10T12:29:42.049Z,23.82
2022-09-10T12:34:47.166Z,24.09
2022-09-10T12:40:12.959Z,24.41
2022-09-10T12:46:01.162Z,24.46
2022-09-10T12:51:13.910Z,24.48
2022-09-10T12:56:32.322Z,24.65
2022-09-10T13:01:49.160Z,25.04
2022-09-10T13:06:55.013Z,25.04
2022-09-10T13:12:03.592Z,24.99
2022-09-10T13:17:05.617Z,24.93
2022-09-10T13:22:31.918Z,24.92
2022-09-10T13:27:33.712Z,24.78
2022-09-10T13:32:48.502Z,24.77
2022-09-10T13:38:03.736Z,24.90
2022-09-10T13:43:39.712Z,25.01
2022-09-10T13:48:51.745Z,25.09
2022-09-10T13:53:54.814Z,25.27
2022-09-10T13:59:03.635Z,25.45
2022-09-10T14:04:27.147Z,25.40
2022-09-10T14:09:30.313Z,25.18
2022-09-10T14:14:38.636Z,25.01
2022-09-10T14:19:44.290Z,24.74
2022-09-10T14:24:52.196Z,24.69
2022-09-10T14:30:00.235Z,24.61
2022-09-10T14:35:39.570Z,24.56
2022-09-10T14:40:41.602Z,24.33
2022-09-10T14:45:47.989Z,24.29
2022-09-10T14:50:50.586Z,24.23
2022-09-10T14:55:52.856Z,23.97
2022-09-10T15:00:54.953Z,23.38
2022-09-10T15:05:56.852Z,23.04
2022-09-10T15:11:00.348Z,22.92
2022-09-10T15:16:02.803Z,22.65
2022-09-10T15:21:07.260Z,22.36
2022-09-10T15:26:12.569Z,22.14
2022-09-10T15:31:14.430Z,21.89
2022-09-10T15:36:16.259Z,21.56
2022-09-10T15:41:18.461Z,21.39
2022-09-10T15:46:22.024Z,21.44
2022-09-10T15:51:24.409Z,21.73
2022-09-10T15:56:26.701Z,21.94
2022-09-10T16:01:29.159Z,22.16
2022-09-10T16:06:36.930Z,22.32
2022-09-10T16:11:40.983Z,22.26
2022-09-10T16:16:42.850Z,22.11
2022-09-10T16:21:48.406Z,22.14
2022-09-10T16:26:51.272Z,21.92
2022-09-10T16:31:53.651Z,21.58
2022-09-10T16:36:55.517Z,21.52
2022-09-10T16:41:57.558Z,21.55
2022-09-10T16:46:59.535Z,21.55
2022-09-10T16:52:01.425Z,21.55
2022-09-10T16:57:03.343Z,21.53
2022-09-10T17:02:05.552Z,21.43
2022-09-10T17:07:07.430Z,21.45
2022-09-10T17:12:10.628Z,21.50
2022-09-10T17:17:13.998Z,21.56
2022-09-10T17:22:15.783Z,21.49
2022-09-10T17:27:17.607Z,21.43
2022-09-10T17:32:19.427Z,21.39
2022-09-10T17:37:21.254Z,21.42
2022-09-10T17:42:23.048Z,21.49
2022-09-10T17:47:24.949Z,21.52
2022-09-10T17:52:26.736Z,21.48
2022-09-10T17:57:28.549Z,21.29
2022-09-10T18:02:31.508Z,21.10
2022-09-10T18:07:33.383Z,21.14
2022-09-10T18:12:35.179Z,21.15
2022-09-10T18:17:37.063Z,21.13
2022-09-10T18:22:39.032Z,21.09
2022-09-10T18:27:43.446Z,21.04
2022-09-10T18:32:47.826Z,21.03
2022-09-10T18:37:52.351Z,20.83
2022-09-10T18:42:54.843Z,20.58
2022-09-10T18:47:57.018Z,20.47
2022-09-10T18:52:59.132Z,20.51
2022-09-10T18:58:02.026Z,20.56
2022-09-10T19:03:04.911Z,20.59
2022-09-10T19:08:07.312Z,20.61
2022-09-10T19:13:10.623Z,20.60
2022-09-10T19:18:12.874Z,20.59
2022-09-10T19:23:19.790Z,20.64
2022-09-10T19:28:23.683Z,20.66
2022-09-10T19:33:26.776Z,20.66
2022-09-10T19:38:46.877Z,20.65
2022-09-10T19:43:51.039Z,20.64
2022-09-10T19:48:53.280Z,20.56
2022-09-10T19:53:56.455Z,20.45
2022-09-10T19:58:59.779Z,20.51
2022-09-10T20:04:05.042Z,20.54
2022-09-10T20:09:09.908Z,20.54
2022-09-10T20:14:14.297Z,20.48
2022-09-10T20:19:22.059Z,20.43
2022-09-10T20:24:23.970Z,20.34
2022-09-10T20:29:30.054Z,20.10
2022-09-10T20:34:32.539Z,19.71
2022-09-10T20:39:34.748Z,19.61
2022-09-10T20:44:36.804Z,19.63
2022-09-10T20:49:38.741Z,19.71
2022-09-10T20:54:40.567Z,19.61
2022-09-10T20:59:44.160Z,19.52
2022-09-10T21:04:45.947Z,19.40
2022-09-10T21:09:47.734Z,19.43
2022-09-10T21:14:50.274Z,19.42
2022-09-10T21:19:52.063Z,19.48
2022-09-10T21:24:53.863Z,19.51
2022-09-10T21:29:55.642Z,19.56
2022-09-10T21:34:57.480Z,19.59
2022-09-10T21:40:01.000Z,19.61
2022-09-10T21:45:02.896Z,19.58
2022-09-10T21:50:05.051Z,19.56
2022-09-10T21:55:07.059Z,19.41
2022-09-10T22:00:10.166Z,19.41
2022-09-10T22:05:15.280Z,19.48
2022-09-10T22:10:18.712Z,19.50
2022-09-10T22:15:20.722Z,19.46
2022-09-10T22:20:22.588Z,19.34
2022-09-10T22:25:24.609Z,19.11
2022-09-10T22:30:30.114Z,18.94
2022-09-10T22:35:33.006Z,18.90
2022-09-10T22:40:34.820Z,18.95
2022-09-10T22:45:36.634Z,19.03
2022-09-10T22:50:38.434Z,19.14
2022-09-10T22:55:40.956Z,19.26
2022-09-10T23:00:42.776Z,19.31
2022-09-10T23:05:44.579Z,19.36
2022-09-10T23:10:46.462Z,19.33
2022-09-10T23:15:49.065Z,19.33
2022-09-10T23:20:51.050Z,19.28
2022-09-10T23:25:52.875Z,19.13
2022-09-10T23:30:54.762Z,19.02
2022-09-10T23:35:56.551Z,18.97
2022-09-10T23:41:00.159Z,18.99
2022-09-10T23:46:02.256Z,18.96
2022-09-10T23:51:06.371Z,18.89
2022-09-10T23:56:08.674Z,18.84
